Aeroporto :
LOGIN :

Iscrizione | Disclaimer

   EN    FR    IT 

 










Sommario :    VFR   VFR Marginale   IFR   IFR Intensivo   IFR Molto Intensivo
Visibilità : 
Base nubi : 
>= 8 km
>= 3000ft
5 / 8 km
1000 / 3000 ft
1500m / 5 km
500 / 1000 ft
800 / 1500m
200 / 500 ft
< 800m
< 200 ft
Simboli :   Temporali  Nebbia  Neve Forte  Precipitazioni Forti  Vento > 20 kt
SIGMETs :   Varie  Temporali  Ghiacco  Turbolenza  Onda orograficha  Ceneri Vulcaniche






- Altitudine del aeroporto : 184 ft
- Codice IATA : BRU


EBBR - Bruxelles

ULTIMO METAR :
  • 292120Z 23014KT CAVOK 06/03 Q1013 NOSIG

METARs OBSOLETI :
  • 292050Z 23013KT 9999 FEW022 06/03 Q1013 NOSIG
  • 292020Z 23011KT 9999 BKN022 06/03 Q1013 NOSIG
  • 291950Z 23011KT 9999 BKN024 07/02 Q1013 NOSIG
  • 291920Z 24011KT 9999 BKN027 07/02 Q1013 NOSIG
  • 291850Z 24010KT 9999 BKN031 06/02 Q1013 NOSIG

TAF TAF EBBR
Valido dal 29 a 18 ore il 31 a 00 ore UTC


291701Z 2918/3024 23011KT 9999 FEW035
BECMG 3012/3014 BKN012
TEMPO 3015/3024 3500 -RADZ BKN007
TEMPO 3020/3024 24015G25KT



MetMap, La meteo Aeronautica in un colpo d'occhio ! - Copyright ORBIFLY Dicembre 2007 - Disclaimer

ORBIFLY MET'MAP TEAM :

Programmazione e sviluppo : Alexandra Zaïnal
Concezione : Baudouin d'Aumeries
Aiuto per la programmazione : Marc-Olivier Méhu
Supporto tecnico e logistico : Manuel Goepfert
Aiuto per la traduzione : Arnaldo La Scala

Contatto : metmap@orbifly.com




FONTI E CREDITI :

   NOAA